Island Falls, Maine
Current Conditions -  °F | °C
As of 10:53 AM on Sunday 21 Dec 2014 (Local Time) from KHUL Reporting Station
Overcast Overcast  
Wind Chill: 18°   Ceiling: 2300
Heat Index: 25°   Visibility: 10mi
Dew Point: 19°   Wind: 6mph
Humidity: 78%   Direction: 90°E
Pressure: 30.35"   Gusts: NA
Location:  46.01°N, 68.26°W
Report Text: KHUL 211553Z AUTO 09005KT 10SM OVC023 M04/M07 A3035 RMK AO2 SLP285 T10391072
Loading
Personal Weather Stations






























Interactive Weather Map New forecast layout! Learn more

10-Day Weather Forecast

Advertisements
Track Severe Weather on mobile